createdAt,value
2023-04-01T00:01:17.813Z,7.77
2023-04-01T00:03:45.590Z,7.82
2023-04-01T00:06:18.091Z,7.87
2023-04-01T00:08:45.393Z,7.84
2023-04-01T00:11:12.302Z,7.77
2023-04-01T00:13:38.953Z,7.82
2023-04-01T00:16:17.720Z,7.73
2023-04-01T00:18:48.527Z,7.69
2023-04-01T00:21:15.602Z,7.72
2023-04-01T00:23:42.669Z,7.68
2023-04-01T00:26:09.609Z,7.65
2023-04-01T00:28:37.019Z,7.66
2023-04-01T00:31:11.896Z,7.70
2023-04-01T00:33:39.593Z,7.64
2023-04-01T00:36:12.152Z,7.60
2023-04-01T00:38:39.599Z,7.52
2023-04-01T00:41:07.057Z,7.47
2023-04-01T00:43:34.536Z,7.54
2023-04-01T00:46:01.158Z,7.51
2023-04-01T00:48:32.344Z,7.49
2023-04-01T00:51:05.786Z,7.43
2023-04-01T00:53:33.941Z,7.42
2023-04-01T00:56:32.384Z,7.41
2023-04-01T00:59:02.650Z,7.30
2023-04-01T01:01:31.642Z,7.42
2023-04-01T01:03:58.326Z,7.32
2023-04-01T01:06:56.871Z,7.24
2023-04-01T01:09:53.986Z,7.33
2023-04-01T01:12:26.802Z,7.46
2023-04-01T01:15:13.004Z,7.49
2023-04-01T01:17:52.725Z,7.38
2023-04-01T01:20:34.915Z,7.41
2023-04-01T01:23:22.851Z,7.33
2023-04-01T01:25:49.400Z,7.27
2023-04-01T01:28:27.913Z,7.25
2023-04-01T01:31:20.100Z,7.32
2023-04-01T01:33:54.304Z,7.28
2023-04-01T01:36:22.260Z,7.34
2023-04-01T01:38:51.791Z,7.34
2023-04-01T01:41:21.214Z,7.33
2023-04-01T01:43:51.752Z,7.37
2023-04-01T01:46:23.990Z,7.31
2023-04-01T01:48:52.099Z,7.29
2023-04-01T01:51:21.270Z,7.38
2023-04-01T01:53:47.918Z,7.44
2023-04-01T01:56:15.052Z,7.46
2023-04-01T01:58:46.280Z,7.49
2023-04-01T02:01:17.969Z,7.61
2023-04-01T02:03:46.765Z,7.54
2023-04-01T02:06:18.976Z,7.52
2023-04-01T02:08:52.832Z,7.51
2023-04-01T02:11:24.082Z,7.48
2023-04-01T02:14:02.330Z,7.46
2023-04-01T02:16:35.857Z,7.32
2023-04-01T02:19:08.387Z,7.31
2023-04-01T02:21:36.866Z,7.42
2023-04-01T02:24:07.075Z,7.37
2023-04-01T02:26:33.845Z,7.26
2023-04-01T02:29:02.379Z,7.31
2023-04-01T02:31:29.669Z,7.26
2023-04-01T02:33:56.317Z,7.20
2023-04-01T02:36:23.076Z,7.23
2023-04-01T02:38:52.131Z,7.24
2023-04-01T02:41:18.830Z,7.21
2023-04-01T02:43:45.373Z,7.19
2023-04-01T02:46:12.066Z,7.19
2023-04-01T02:48:38.705Z,7.29
2023-04-01T02:51:05.461Z,7.32
2023-04-01T02:53:32.013Z,7.32
2023-04-01T02:55:58.587Z,7.15
2023-04-01T02:58:25.361Z,7.04
2023-04-01T03:00:51.976Z,6.93
2023-04-01T03:03:18.735Z,6.93
2023-04-01T03:05:45.390Z,6.92
2023-04-01T03:08:12.800Z,6.89
2023-04-01T03:10:39.439Z,6.81
2023-04-01T03:13:07.255Z,6.81
2023-04-01T03:15:34.146Z,6.62
2023-04-01T03:18:01.155Z,6.84
2023-04-01T03:20:27.859Z,6.64
2023-04-01T03:22:54.460Z,6.45
2023-04-01T03:25:21.158Z,6.38
2023-04-01T03:27:47.755Z,6.33
2023-04-01T03:30:14.422Z,6.18
2023-04-01T03:32:41.089Z,5.94
2023-04-01T03:35:08.228Z,5.92
2023-04-01T03:37:34.908Z,5.93
2023-04-01T03:40:01.642Z,6.08
2023-04-01T03:42:28.338Z,6.16
2023-04-01T03:44:55.021Z,6.19
2023-04-01T03:47:21.684Z,6.38
2023-04-01T03:49:48.340Z,6.43
2023-04-01T03:52:15.004Z,6.57
2023-04-01T03:54:41.594Z,6.43
2023-04-01T03:57:08.322Z,6.34
2023-04-01T03:59:35.456Z,6.25
2023-04-01T04:02:02.141Z,6.05
2023-04-01T04:04:28.981Z,5.98
2023-04-01T04:06:56.154Z,5.89
2023-04-01T04:09:23.462Z,5.85
2023-04-01T04:11:50.773Z,5.91
2023-04-01T04:14:17.737Z,5.95
2023-04-01T04:16:44.331Z,5.94
2023-04-01T04:19:10.953Z,5.85
2023-04-01T04:21:37.523Z,5.89
2023-04-01T04:24:04.524Z,5.67
2023-04-01T04:26:31.328Z,5.68
2023-04-01T04:28:58.053Z,5.55
2023-04-01T04:31:25.950Z,5.58
2023-04-01T04:33:56.074Z,5.38
2023-04-01T04:36:23.370Z,5.33
2023-04-01T04:38:49.984Z,5.27
2023-04-01T04:41:18.827Z,5.33
2023-04-01T04:43:57.010Z,5.22
2023-04-01T04:46:24.354Z,5.17
2023-04-01T04:48:51.216Z,5.33
2023-04-01T04:51:19.778Z,5.43
2023-04-01T04:53:47.032Z,5.57
2023-04-01T04:56:13.795Z,5.70
2023-04-01T04:58:41.048Z,5.89
2023-04-01T05:01:12.876Z,6.01
2023-04-01T05:03:39.813Z,6.04
2023-04-01T05:06:08.261Z,6.14
2023-04-01T05:08:35.413Z,6.22
2023-04-01T05:11:02.397Z,6.38
2023-04-01T05:13:29.860Z,6.57
2023-04-01T05:15:56.714Z,6.74
2023-04-01T05:18:23.597Z,6.91
2023-04-01T05:20:52.418Z,7.10
2023-04-01T05:23:19.372Z,7.19
2023-04-01T05:25:46.401Z,7.28
2023-04-01T05:28:13.402Z,7.49
2023-04-01T05:30:44.013Z,7.65
2023-04-01T05:33:12.084Z,7.77
2023-04-01T05:35:38.785Z,7.90
2023-04-01T05:38:06.522Z,8.32
2023-04-01T05:40:34.240Z,8.63
2023-04-01T05:43:01.596Z,9.45
2023-04-01T05:45:28.539Z,10.12
2023-04-01T05:47:55.336Z,10.45
2023-04-01T05:50:21.999Z,10.91
2023-04-01T05:52:48.607Z,11.89
2023-04-01T05:55:15.462Z,12.59
2023-04-01T05:57:42.220Z,12.57
2023-04-01T06:00:09.877Z,12.52
2023-04-01T06:02:36.584Z,12.61
2023-04-01T06:05:16.351Z,13.12
2023-04-01T06:07:42.989Z,12.85
2023-04-01T06:10:20.239Z,12.81
2023-04-01T06:12:58.481Z,12.60
2023-04-01T06:15:36.001Z,13.01
2023-04-01T06:18:23.943Z,12.85
2023-04-01T06:21:12.348Z,11.84
2023-04-01T06:23:41.809Z,11.59
2023-04-01T06:26:45.026Z,11.21
2023-04-01T06:29:37.964Z,11.40
2023-04-01T06:32:28.737Z,11.52
2023-04-01T06:35:13.413Z,11.66
2023-04-01T06:37:46.119Z,11.36
2023-04-01T06:40:41.998Z,11.56
2023-04-01T06:43:18.010Z,11.72
2023-04-01T06:45:53.437Z,11.79
2023-04-01T06:48:34.705Z,11.58
2023-04-01T06:51:23.710Z,12.47
2023-04-01T06:54:17.588Z,12.77
2023-04-01T06:56:47.679Z,13.32
2023-04-01T06:59:20.098Z,14.01
2023-04-01T07:01:48.957Z,13.71
2023-04-01T07:04:21.835Z,13.39
2023-04-01T07:06:55.088Z,13.95
2023-04-01T07:09:37.958Z,13.20
2023-04-01T07:12:15.610Z,13.71
2023-04-01T07:14:43.971Z,13.33
2023-04-01T07:17:17.881Z,13.30
2023-04-01T07:20:12.249Z,12.86
2023-04-01T07:22:46.067Z,13.19
2023-04-01T07:25:19.334Z,13.56
2023-04-01T07:27:47.548Z,13.14
2023-04-01T07:30:24.396Z,13.40
2023-04-01T07:33:26.328Z,14.09
2023-04-01T07:36:04.271Z,13.33
2023-04-01T07:38:49.697Z,13.27
2023-04-01T07:41:53.782Z,13.48
2023-04-01T07:44:58.890Z,13.34
2023-04-01T07:47:53.522Z,13.66
2023-04-01T07:50:53.211Z,13.90
2023-04-01T07:54:01.342Z,13.91
2023-04-01T07:57:11.143Z,14.60
2023-04-01T07:59:54.523Z,14.48
2023-04-01T08:02:36.094Z,15.68
2023-04-01T08:05:25.759Z,15.05
2023-04-01T08:08:07.135Z,16.08
2023-04-01T08:10:53.277Z,15.98
2023-04-01T08:13:52.765Z,15.32
2023-04-01T08:16:27.422Z,15.23
2023-04-01T08:19:16.708Z,16.79
2023-04-01T08:21:51.609Z,17.00
2023-04-01T08:24:47.610Z,15.79
2023-04-01T08:27:53.011Z,15.98
2023-04-01T08:30:32.269Z,15.93
2023-04-01T08:33:12.328Z,16.44
2023-04-01T08:35:51.640Z,17.25
2023-04-01T08:38:33.706Z,17.71
2023-04-01T08:41:03.001Z,17.65
2023-04-01T08:43:48.403Z,18.05
2023-04-01T08:46:41.433Z,17.38
2023-04-01T08:49:44.616Z,16.44
2023-04-01T08:52:42.374Z,16.13
